Time;durP1;ratioP1;P1;durP2;ratioP2;P2;SDS_P1;SDS_P2;PMS_P1;PMS_P2;Temp;Humidity;BMP_temperature;BMP_pressure;BME280_temperature;BME280_humidity;BME280_pressure;Samples;Min_cycle;Max_cycle;Signal;HPM_P1;HPM_P2
2021/07/13 00:01:15;;;;;;;8.10;7.30;;;;;;;18.77;nan;100088.09;5024659;28;20140;-78
2021/07/13 00:03:40;;;;;;;7.78;7.07;;;;;;;18.78;nan;100080.91;5021316;28;20112;-77
2021/07/13 00:06:06;;;;;;;8.27;6.55;;;;;;;18.79;nan;100088.03;5023484;28;20484;-77
2021/07/13 00:08:31;;;;;;;9.43;7.47;;;;;;;18.80;nan;100087.06;5022643;28;20045;-77
2021/07/13 00:10:56;;;;;;;8.93;7.57;;;;;;;18.71;nan;100093.69;5022615;28;20092;-77
2021/07/13 00:13:21;;;;;;;9.35;6.85;;;;;;;18.59;nan;100091.56;5023874;28;20037;-77
2021/07/13 00:15:47;;;;;;;9.95;7.85;;;;;;;18.51;nan;100096.41;5020671;28;20046;-77
2021/07/13 00:18:13;;;;;;;7.50;6.80;;;;;;;18.46;nan;100091.28;5024011;28;20041;-77
2021/07/13 00:20:39;;;;;;;7.57;6.82;;;;;;;18.45;nan;100088.69;5021284;28;20033;-77
2021/07/13 00:23:05;;;;;;;7.82;7.03;;;;;;;18.40;nan;100087.09;5022244;28;20041;-77
2021/07/13 00:25:31;;;;;;;7.78;6.97;;;;;;;18.33;nan;100084.75;5022590;28;20037;-77
2021/07/13 00:27:57;;;;;;;8.32;7.22;;;;;;;18.32;nan;100085.69;5019465;28;20037;-77
2021/07/13 00:30:23;;;;;;;9.35;8.38;;;;;;;18.30;nan;100075.06;5023323;28;20044;-77
2021/07/13 00:32:49;;;;;;;8.20;7.43;;;;;;;18.26;nan;100069.94;5021087;28;20048;-77
2021/07/13 00:35:15;;;;;;;8.07;7.28;;;;;;;18.22;nan;100060.34;5021952;28;20041;-77
2021/07/13 00:37:43;;;;;;;8.25;7.43;;;;;;;18.17;nan;100057.88;5022170;28;20050;-77
2021/07/13 00:40:10;;;;;;;8.20;7.20;;;;;;;18.15;nan;100060.59;5020566;28;20034;-77
2021/07/13 00:42:36;;;;;;;9.10;7.75;;;;;;;18.15;nan;100052.59;5020020;28;20392;-76
2021/07/13 00:45:03;;;;;;;9.77;6.75;;;;;;;18.12;nan;100052.72;5022172;28;20030;-77
2021/07/13 00:47:30;;;;;;;7.88;7.18;;;;;;;18.05;nan;100048.63;5021476;28;20026;-76
2021/07/13 00:49:55;;;;;;;9.63;7.50;;;;;;;17.99;nan;100053.34;5021016;28;20034;-77
2021/07/13 00:52:20;;;;;;;8.35;7.50;;;;;;;17.98;nan;100055.16;5023244;28;20036;-77
2021/07/13 00:54:49;;;;;;;7.20;6.50;;;;;;;17.99;nan;100048.88;5019813;28;20029;-77
2021/07/13 00:57:18;;;;;;;8.30;7.20;;;;;;;17.94;nan;100053.53;5021127;28;20033;-77
2021/07/13 00:59:44;;;;;;;7.90;7.05;;;;;;;17.90;nan;100055.50;5022158;28;20049;-77
2021/07/13 01:02:11;;;;;;;7.47;6.78;;;;;;;17.89;nan;100053.78;5019216;28;20042;-77
2021/07/13 01:04:41;;;;;;;7.35;6.65;;;;;;;17.87;nan;100049.44;5022710;28;20048;-77
2021/07/13 01:07:43;;;;;;;8.05;7.25;;;;;;;17.88;nan;100053.81;5020998;28;20042;-77
2021/07/13 01:10:16;;;;;;;8.18;7.47;;;;;;;17.92;nan;100056.31;5022571;28;20037;-77
2021/07/13 01:12:47;;;;;;;9.90;8.02;;;;;;;17.92;nan;100055.41;5020561;28;20037;-77
2021/07/13 01:15:17;;;;;;;9.07;8.18;;;;;;;17.93;nan;100055.34;5020759;28;20037;-77
2021/07/13 01:18:08;;;;;;;7.97;7.28;;;;;;;17.93;nan;100054.50;5034491;28;20034;-77
2021/07/13 01:20:56;;;;;;;7.97;7.25;;;;;;;17.88;nan;100056.50;5018446;28;20048;-77
2021/07/13 01:23:46;;;;;;;7.93;7.22;;;;;;;17.84;nan;100057.56;5019786;28;20034;-77
2021/07/13 01:26:36;;;;;;;8.15;7.35;;;;;;;17.77;nan;100050.75;5039954;23;20045;-78
2021/07/13 01:29:07;;;;;;;9.48;8.20;;;;;;;17.70;nan;100056.31;5039149;28;20538;-78
2021/07/13 01:31:32;;;;;;;8.05;7.00;;;;;;;17.65;nan;100060.13;5036294;28;20045;-78
2021/07/13 01:34:05;;;;;;;8.98;7.40;;;;;;;17.59;nan;100050.59;5042142;28;20064;-78
2021/07/13 01:36:33;;;;;;;10.50;6.90;;;;;;;17.55;nan;100053.44;5029005;28;20033;-78
2021/07/13 01:39:01;;;;;;;7.88;7.07;;;;;;;17.46;nan;100047.56;5021180;28;20107;-77
2021/07/13 01:41:30;;;;;;;8.35;7.60;;;;;;;17.42;nan;100047.75;5021334;28;20034;-78
2021/07/13 01:43:56;;;;;;;8.18;7.38;;;;;;;17.43;nan;100050.38;5025598;28;20037;-77
2021/07/13 01:46:23;;;;;;;8.07;7.28;;;;;;;17.42;nan;100043.31;5023443;28;20038;-78
2021/07/13 01:48:52;;;;;;;8.65;7.30;;;;;;;17.44;nan;100041.41;5025974;28;20084;-77
2021/07/13 01:51:19;;;;;;;9.32;8.00;;;;;;;17.45;nan;100035.16;5021643;28;20022;-77
2021/07/13 01:53:46;;;;;;;10.00;8.15;;;;;;;17.46;nan;100034.22;5023470;28;20033;-77
2021/07/13 01:56:12;;;;;;;9.02;7.00;;;;;;;17.44;nan;100040.56;5035364;28;20545;-78
2021/07/13 01:58:39;;;;;;;7.95;7.15;;;;;;;17.37;nan;100029.28;5036344;28;20041;-77
2021/07/13 02:01:17;;;;;;;8.20;7.40;;;;;;;17.36;nan;100027.53;5029766;28;20083;-77
2021/07/13 02:03:43;;;;;;;9.13;6.80;;;;;;;17.32;nan;100031.28;5030696;28;20040;-77
2021/07/13 02:06:10;;;;;;;9.45;6.63;;;;;;;17.27;nan;100022.63;5028422;28;20034;-77
2021/07/13 02:08:40;;;;;;;7.68;6.97;;;;;;;17.27;nan;100026.13;5023900;28;20033;-77
2021/07/13 02:11:07;;;;;;;9.52;7.63;;;;;;;17.29;nan;100020.72;5025472;28;20029;-77
2021/07/13 02:13:33;;;;;;;10.02;6.70;;;;;;;17.30;nan;100023.34;5023249;28;20380;-77
2021/07/13 02:15:59;;;;;;;9.25;7.40;;;;;;;17.32;nan;100020.63;5025248;28;20044;-77
2021/07/13 02:18:25;;;;;;;8.00;7.20;;;;;;;17.35;nan;100019.63;5022677;28;20042;-77
2021/07/13 02:20:50;;;;;;;7.70;6.90;;;;;;;17.37;nan;100020.41;5025642;28;20043;-77
2021/07/13 02:23:15;;;;;;;10.13;7.22;;;;;;;17.37;nan;100020.41;5022762;28;20029;-77
2021/07/13 02:25:43;;;;;;;15.48;13.98;;;;;;;17.37;nan;100018.63;5025172;28;20499;-77
2021/07/13 02:28:18;;;;;;;16.13;14.52;;;;;;;17.38;nan;100008.81;5022192;28;20044;-77
2021/07/13 02:30:49;;;;;;;16.15;14.18;;;;;;;17.38;nan;100015.00;5023139;28;20065;-77
2021/07/13 02:33:20;;;;;;;15.18;13.68;;;;;;;17.38;nan;100012.34;5024001;28;20037;-77
2021/07/13 02:35:52;;;;;;;9.73;8.00;;;;;;;17.34;nan;100009.88;5024299;28;20041;-76
2021/07/13 02:38:19;;;;;;;8.47;6.87;;;;;;;17.28;nan;100017.19;5022346;28;20037;-77
2021/07/13 02:40:47;;;;;;;9.38;7.47;;;;;;;17.24;nan;100014.75;5025525;28;20838;-77
2021/07/13 02:43:14;;;;;;;10.85;9.80;;;;;;;17.25;nan;100019.13;5022090;28;20121;-77
2021/07/13 02:45:42;;;;;;;13.63;11.65;;;;;;;17.29;nan;100023.38;5024879;28;20036;-77
2021/07/13 02:48:09;;;;;;;12.00;10.48;;;;;;;17.28;nan;100019.88;5026109;28;20060;-77
2021/07/13 02:50:36;;;;;;;13.15;11.85;;;;;;;17.28;nan;100011.00;5024625;28;20025;-77
2021/07/13 02:53:02;;;;;;;16.73;13.68;;;;;;;17.28;nan;100008.34;5022332;28;20037;-78
2021/07/13 02:55:31;;;;;;;13.82;12.43;;;;;;;17.29;nan;100007.38;5023797;28;20026;-77
2021/07/13 02:57:58;;;;;;;14.27;12.80;;;;;;;17.31;nan;100013.53;5023297;28;20022;-77
2021/07/13 03:00:23;;;;;;;13.27;11.98;;;;;;;17.33;nan;100011.69;5023442;28;20029;-77
2021/07/13 03:02:50;;;;;;;9.50;8.65;;;;;;;17.32;nan;100015.28;5023464;28;20038;-77
2021/07/13 03:05:18;;;;;;;10.27;7.78;;;;;;;17.23;nan;100010.31;5022826;28;20033;-77
2021/07/13 03:07:45;;;;;;;9.32;8.10;;;;;;;17.12;nan;100001.91;5023890;28;20042;-77
2021/07/13 03:10:12;;;;;;;9.13;8.23;;;;;;;17.05;nan;99996.81;5022388;28;20044;-77
2021/07/13 03:12:37;;;;;;;9.95;9.05;;;;;;;17.05;nan;99995.94;5028368;28;20453;-77
2021/07/13 03:15:04;;;;;;;11.57;10.38;;;;;;;17.09;nan;100006.44;5029127;28;20061;-78
2021/07/13 03:17:29;;;;;;;14.55;11.80;;;;;;;17.15;nan;100013.31;5023419;28;20136;-77
2021/07/13 03:19:55;;;;;;;12.63;11.30;;;;;;;17.23;nan;100010.31;5024281;28;20129;-77
2021/07/13 03:22:26;;;;;;;13.25;11.88;;;;;;;17.28;nan;100003.00;5025731;28;20033;-77
2021/07/13 03:24:53;;;;;;;10.30;9.20;;;;;;;17.27;nan;100001.28;5021811;28;20042;-77
2021/07/13 03:27:21;;;;;;;11.77;10.60;;;;;;;17.24;nan;100001.41;5020992;28;20037;-77
2021/07/13 03:29:50;;;;;;;12.98;11.68;;;;;;;17.26;nan;100010.19;5024267;28;20112;-77
2021/07/13 03:32:17;;;;;;;13.13;11.82;;;;;;;17.29;nan;100005.63;5021864;28;20091;-77
2021/07/13 03:34:44;;;;;;;14.73;13.20;;;;;;;17.35;nan;99992.94;5022082;28;20109;-77
2021/07/13 03:37:09;;;;;;;13.52;11.60;;;;;;;17.37;nan;99999.06;5022091;28;20159;-78
2021/07/13 03:39:35;;;;;;;13.15;10.88;;;;;;;17.28;nan;100005.66;5025322;28;20052;-77
2021/07/13 03:42:01;;;;;;;14.60;13.10;;;;;;;17.28;nan;100003.00;5017687;28;20034;-78
2021/07/13 03:44:26;;;;;;;11.13;10.02;;;;;;;17.30;nan;100007.34;5021949;28;20033;-77
2021/07/13 03:46:52;;;;;;;10.95;9.73;;;;;;;17.30;nan;99999.34;5023533;28;20038;-77
2021/07/13 03:49:18;;;;;;;10.30;9.20;;;;;;;17.30;nan;100011.81;5022891;28;20372;-77
2021/07/13 03:51:45;;;;;;;12.45;9.75;;;;;;;17.34;nan;100013.41;5022239;28;20503;-77
2021/07/13 03:54:13;;;;;;;10.32;9.10;;;;;;;17.42;nan;100021.97;5022330;28;20029;-77
2021/07/13 03:56:40;;;;;;;12.63;9.95;;;;;;;17.49;nan;100020.75;5022721;28;20583;-76
2021/07/13 03:59:05;;;;;;;12.05;10.32;;;;;;;17.50;nan;100018.94;5021909;28;20543;-76
2021/07/13 04:01:31;;;;;;;12.32;10.50;;;;;;;17.54;nan;100015.22;5022804;28;20069;-77
2021/07/13 04:03:56;;;;;;;10.02;8.85;;;;;;;17.56;nan;100016.03;5019669;28;20029;-77
2021/07/13 04:06:22;;;;;;;10.07;9.10;;;;;;;17.66;nan;100013.84;5022459;28;20444;-77
2021/07/13 04:08:47;;;;;;;9.32;7.85;;;;;;;17.74;nan;100009.03;5021629;28;20037;-77
2021/07/13 04:11:13;;;;;;;10.70;9.27;;;;;;;17.81;nan;100014.97;5022464;28;20034;-76
2021/07/13 04:13:38;;;;;;;13.40;10.52;;;;;;;17.85;nan;100004.13;5021758;28;20121;-77
2021/07/13 04:16:04;;;;;;;14.43;13.02;;;;;;;17.99;nan;100010.63;5018137;28;20037;-77
2021/07/13 04:18:30;;;;;;;14.82;12.68;;;;;;;18.09;nan;100014.63;5023623;28;20036;-77
2021/07/13 04:20:55;;;;;;;17.83;13.68;;;;;;;18.16;nan;100002.72;5023287;28;20595;-77
2021/07/13 04:23:20;;;;;;;15.70;14.02;;;;;;;18.25;nan;100001.44;5023827;28;20045;-77
2021/07/13 04:25:47;;;;;;;19.13;17.05;;;;;;;18.36;nan;99993.78;5019065;28;20119;-77
2021/07/13 04:28:12;;;;;;;17.52;15.60;;;;;;;18.45;nan;99995.16;5022443;28;20037;-76
2021/07/13 04:30:37;;;;;;;13.32;11.95;;;;;;;18.48;nan;99992.34;5021055;28;20050;-76
2021/07/13 04:33:03;;;;;;;12.20;11.00;;;;;;;18.50;nan;99993.16;5022419;28;20041;-76
2021/07/13 04:35:29;;;;;;;10.85;9.82;;;;;;;18.56;nan;99996.38;5024306;28;20044;-77
2021/07/13 04:37:54;;;;;;;10.65;9.60;;;;;;;18.64;nan;99982.66;5028947;28;20116;-77
2021/07/13 04:40:19;;;;;;;10.52;9.43;;;;;;;18.67;nan;99987.84;5020618;28;20057;-77
2021/07/13 04:42:45;;;;;;;13.25;11.85;;;;;;;18.69;nan;99991.31;5022187;28;20034;-78
2021/07/13 04:45:11;;;;;;;14.30;12.60;;;;;;;18.77;nan;100005.22;5022119;28;20044;-78
2021/07/13 04:47:36;;;;;;;16.30;14.63;;;;;;;18.89;nan;99997.53;5022189;28;20036;-77
2021/07/13 04:50:03;;;;;;;14.45;12.82;;;;;;;19.00;nan;99997.88;5028393;28;20504;-77
2021/07/13 04:52:28;;;;;;;17.23;15.60;;;;;;;19.08;nan;99992.16;5022649;28;20029;-78
2021/07/13 04:54:54;;;;;;;17.15;15.50;;;;;;;19.15;nan;99989.09;5024170;28;20555;-77
2021/07/13 04:57:19;;;;;;;16.48;14.82;;;;;;;19.29;nan;99996.41;5019884;28;20048;-77
2021/07/13 04:59:44;;;;;;;14.60;13.20;;;;;;;19.41;nan;99994.91;5025949;28;20033;-78
2021/07/13 05:02:10;;;;;;;14.50;13.13;;;;;;;19.52;nan;99997.94;5020209;28;20038;-77
2021/07/13 05:04:35;;;;;;;16.30;14.63;;;;;;;19.64;nan;99994.59;5020557;28;20091;-78
2021/07/13 05:07:00;;;;;;;14.68;13.20;;;;;;;19.75;nan;100003.91;5020061;28;20038;-77
2021/07/13 05:09:26;;;;;;;11.95;10.57;;;;;;;19.86;nan;100001.56;5024827;28;20116;-77
2021/07/13 05:11:51;;;;;;;8.10;7.07;;;;;;;19.90;nan;100003.97;5020091;28;20034;-78
2021/07/13 05:14:17;;;;;;;8.13;7.30;;;;;;;19.93;nan;99997.56;5023211;28;20060;-78
2021/07/13 05:16:42;;;;;;;8.27;7.25;;;;;;;20.04;nan;100005.94;5025239;28;20041;-77
2021/07/13 05:19:09;;;;;;;7.30;6.28;;;;;;;20.11;nan;100009.13;5026353;28;20096;-77
2021/07/13 05:21:35;;;;;;;8.00;7.20;;;;;;;20.19;nan;100004.22;5026092;28;20677;-77
2021/07/13 05:24:00;;;;;;;8.15;7.00;;;;;;;20.32;nan;99999.06;5029895;28;20116;-77
2021/07/13 05:26:28;;;;;;;8.13;7.18;;;;;;;20.42;nan;100002.97;5024440;28;20492;-77
2021/07/13 05:28:53;;;;;;;5.07;4.55;;;;;;;20.50;nan;99998.03;5027896;28;20033;-78
2021/07/13 05:31:19;;;;;;;6.60;5.90;;;;;;;20.57;nan;99994.09;5026871;28;20089;-77
2021/07/13 05:33:44;;;;;;;5.38;4.70;;;;;;;20.55;nan;99987.09;5028455;28;20091;-77
2021/07/13 05:36:09;;;;;;;5.65;4.15;;;;;;;20.54;nan;99988.91;5030241;28;20045;-77
2021/07/13 05:38:34;;;;;;;4.78;4.20;;;;;;;20.65;nan;99987.44;5024715;28;20048;-77
2021/07/13 05:41:00;;;;;;;6.72;5.57;;;;;;;20.73;nan;99978.00;5026658;28;20037;-78
2021/07/13 05:43:25;;;;;;;9.20;5.85;;;;;;;20.81;nan;99969.53;5038096;28;20129;-77
2021/07/13 05:45:50;;;;;;;9.85;8.85;;;;;;;20.95;nan;99972.25;5026045;28;20041;-77
2021/07/13 05:48:16;;;;;;;9.23;7.82;;;;;;;21.02;nan;99970.97;5026752;28;20059;-77
2021/07/13 05:50:41;;;;;;;8.55;7.75;;;;;;;21.10;nan;99965.16;5023065;28;20402;-77
2021/07/13 05:53:07;;;;;;;8.60;5.68;;;;;;;21.14;nan;99965.81;5026272;28;20041;-77
2021/07/13 05:55:32;;;;;;;10.88;9.43;;;;;;;21.21;nan;99965.38;5026018;28;20407;-78
2021/07/13 05:57:57;;;;;;;7.45;6.63;;;;;;;21.27;nan;99966.81;5022908;28;20045;-77
2021/07/13 06:00:23;;;;;;;9.13;7.80;;;;;;;21.37;nan;99959.94;5026069;28;20067;-78
2021/07/13 06:02:48;;;;;;;8.20;5.60;;;;;;;21.50;nan;99961.94;5022747;28;20038;-78
2021/07/13 06:05:14;;;;;;;9.40;6.80;;;;;;;21.60;nan;99965.78;5025927;28;20057;-77
2021/07/13 06:07:47;;;;;;;8.38;7.55;;;;;;;21.71;nan;99957.06;5022760;28;20034;-78
2021/07/13 06:10:13;;;;;;;8.20;7.13;;;;;;;21.81;nan;99956.41;5025012;28;20037;-78
2021/07/13 06:12:40;;;;;;;11.05;7.65;;;;;;;21.91;nan;99961.22;5023167;28;20037;-77
2021/07/13 06:15:07;;;;;;;11.90;7.53;;;;;;;22.03;nan;99955.06;5024865;28;20124;-77
2021/07/13 06:17:32;;;;;;;14.38;8.95;;;;;;;22.14;nan;99957.97;5023384;28;20492;-78
2021/07/13 06:19:58;;;;;;;13.52;7.53;;;;;;;22.25;nan;99966.22;5024993;28;20033;-77
2021/07/13 06:22:23;;;;;;;16.15;7.35;;;;;;;22.38;nan;99962.78;5023373;28;20046;-78
2021/07/13 06:24:48;;;;;;;27.67;11.85;;;;;;;22.52;nan;99962.72;5024563;28;20026;-78
2021/07/13 06:27:14;;;;;;;9.23;7.40;;;;;;;22.68;nan;99962.59;5022286;28;20489;-78
2021/07/13 06:29:39;;;;;;;4.97;4.35;;;;;;;22.77;nan;99962.00;5025831;28;20058;-78
2021/07/13 06:32:06;;;;;;;5.47;4.10;;;;;;;22.83;nan;99958.91;5025793;28;20061;-77
2021/07/13 06:34:31;;;;;;;8.05;5.05;;;;;;;22.98;nan;99962.44;5026891;28;20072;-77
2021/07/13 06:36:56;;;;;;;6.18;5.57;;;;;;;23.14;nan;99964.97;5025806;28;20069;-78
2021/07/13 06:39:22;;;;;;;7.03;5.43;;;;;;;23.29;nan;99968.44;5035093;28;20447;-77
2021/07/13 06:41:47;;;;;;;8.55;5.70;;;;;;;23.38;nan;99967.81;5023030;28;20556;-78
2021/07/13 06:44:13;;;;;;;11.55;6.85;;;;;;;23.55;nan;99958.56;5024061;28;20120;-78
2021/07/13 06:46:38;;;;;;;10.00;6.72;;;;;;;23.80;nan;99963.16;5023017;28;20044;-78
2021/07/13 06:49:04;;;;;;;6.38;5.00;;;;;;;23.97;nan;99964.63;5024222;28;20063;-78
2021/07/13 06:51:29;;;;;;;11.00;6.13;;;;;;;24.13;nan;99959.91;5020274;28;20034;-79
2021/07/13 06:53:55;;;;;;;6.65;4.65;;;;;;;24.30;nan;99961.38;5022979;28;20579;-78
2021/07/13 06:56:20;;;;;;;9.50;5.10;;;;;;;24.51;nan;99961.69;5023720;28;20040;-78
2021/07/13 06:58:45;;;;;;;6.25;3.88;;;;;;;24.65;nan;99956.16;5025402;28;20116;-79
2021/07/13 07:01:11;;;;;;;6.80;5.63;;;;;;;24.91;nan;99964.13;5022879;28;20077;-78
2021/07/13 07:03:36;;;;;;;5.00;4.40;;;;;;;25.16;nan;99960.47;5026947;28;20037;-78
2021/07/13 07:06:02;;;;;;;5.13;4.22;;;;;;;25.41;nan;99958.56;5023527;28;20056;-78
2021/07/13 07:08:27;;;;;;;5.93;5.32;;;;;;;25.62;nan;99954.19;5022780;28;20036;-77
2021/07/13 07:10:52;;;;;;;5.68;4.07;;;;;;;25.75;nan;99955.00;5023749;28;20041;-77
2021/07/13 07:13:18;;;;;;;6.63;4.88;;;;;;;25.98;nan;99960.44;5022649;28;20041;-79
2021/07/13 07:15:43;;;;;;;8.07;5.10;;;;;;;26.11;nan;99947.66;5023343;28;20038;-78
2021/07/13 07:18:08;;;;;;;11.48;5.80;;;;;;;26.19;nan;99950.59;5029848;28;20022;-77
2021/07/13 07:20:34;;;;;;;5.15;3.45;;;;;;;26.10;nan;99940.53;5023530;28;20041;-77
2021/07/13 07:22:59;;;;;;;5.25;4.28;;;;;;;26.21;nan;99940.53;5022527;28;20033;-78
2021/07/13 07:25:27;;;;;;;6.13;3.33;;;;;;;26.33;nan;99935.09;5032481;23;20041;-74
2021/07/13 07:27:55;;;;;;;4.25;2.85;;;;;;;26.47;nan;99932.13;5019746;28;20049;-75
2021/07/13 07:30:21;;;;;;;3.80;2.88;;;;;;;26.45;nan;99932.25;5023441;28;20059;-75
2021/07/13 07:32:47;;;;;;;6.75;3.63;;;;;;;26.49;nan;99927.47;5021684;28;20026;-76
2021/07/13 07:35:13;;;;;;;6.40;4.72;;;;;;;26.51;nan;99930.88;4999880;28;20525;-74
2021/07/13 07:37:38;;;;;;;5.80;3.47;;;;;;;26.38;nan;99936.47;5006904;28;20026;-74
2021/07/13 07:40:06;;;;;;;4.70;2.60;;;;;;;26.23;nan;99938.56;5009369;28;20038;-76
2021/07/13 07:42:34;;;;;;;5.03;2.83;;;;;;;26.10;nan;99929.72;5006927;28;20519;-76
2021/07/13 07:44:59;;;;;;;6.78;4.03;;;;;;;26.06;nan;99928.22;5009834;28;20377;-75
2021/07/13 07:47:25;;;;;;;5.00;2.50;;;;;;;26.01;nan;99923.19;5008682;28;20072;-75
2021/07/13 07:49:50;;;;;;;4.68;2.13;;;;;;;25.92;nan;99914.97;5008594;28;20040;-76
2021/07/13 07:52:16;;;;;;;5.15;3.35;;;;;;;25.98;nan;99914.47;5008039;28;20037;-76
2021/07/13 07:54:41;;;;;;;6.78;3.45;;;;;;;26.10;nan;99913.50;5002234;28;20042;-76
2021/07/13 07:57:07;;;;;;;4.85;3.70;;;;;;;26.12;nan;99922.34;5010012;28;20168;-75
2021/07/13 07:59:32;;;;;;;4.80;4.13;;;;;;;26.23;nan;99916.94;5004887;28;20045;-76
2021/07/13 08:01:57;;;;;;;5.70;3.95;;;;;;;26.36;nan;99908.66;5010827;28;20036;-76
2021/07/13 08:04:23;;;;;;;4.60;3.13;;;;;;;26.47;nan;99915.91;5001326;28;20100;-74
2021/07/13 08:06:48;;;;;;;6.50;4.50;;;;;;;26.53;nan;99915.41;5003020;28;20120;-75
2021/07/13 08:09:13;;;;;;;7.72;5.43;;;;;;;26.69;nan;99919.56;5002629;28;20386;-76
2021/07/13 08:11:39;;;;;;;10.35;5.22;;;;;;;26.84;nan;99918.28;5000900;28;20622;-76
2021/07/13 08:14:05;;;;;;;10.15;5.97;;;;;;;26.98;nan;99909.84;4999556;28;20400;-76
2021/07/13 08:16:31;;;;;;;7.00;4.82;;;;;;;27.03;nan;99906.75;5000346;28;20029;-75
2021/07/13 08:18:58;;;;;;;9.10;5.07;;;;;;;27.02;nan;99905.91;5001221;28;20053;-76
2021/07/13 08:21:23;;;;;;;11.38;6.05;;;;;;;27.14;nan;99895.84;5008047;28;20480;-76
2021/07/13 08:23:48;;;;;;;7.30;5.78;;;;;;;27.29;nan;99893.72;5004390;28;20049;-74
2021/07/13 08:26:14;;;;;;;6.03;5.30;;;;;;;27.39;nan;99894.66;5009709;28;20029;-76
2021/07/13 08:28:39;;;;;;;8.20;6.18;;;;;;;27.52;nan;99889.88;5003560;28;20034;-75
2021/07/13 08:31:05;;;;;;;9.55;6.53;;;;;;;27.65;nan;99891.53;5006568;28;20433;-75
2021/07/13 08:33:30;;;;;;;11.75;5.95;;;;;;;27.74;nan;99879.88;5003793;28;20386;-76
2021/07/13 08:35:56;;;;;;;7.43;5.32;;;;;;;27.81;nan;99878.38;5022733;28;20040;-75
2021/07/13 08:38:21;;;;;;;4.75;4.00;;;;;;;27.86;nan;99870.69;5004262;28;20044;-76
2021/07/13 08:40:47;;;;;;;9.25;6.40;;;;;;;27.86;nan;99873.41;5000601;28;20038;-75
2021/07/13 08:43:13;;;;;;;8.25;6.38;;;;;;;27.93;nan;99863.72;5003603;28;20091;-75
2021/07/13 08:45:39;;;;;;;8.25;6.90;;;;;;;28.10;nan;99869.47;5000382;28;20046;-75
2021/07/13 08:48:04;;;;;;;8.57;6.97;;;;;;;28.22;nan;99868.38;5002446;28;20045;-76
2021/07/13 08:50:30;;;;;;;9.38;6.97;;;;;;;28.26;nan;99863.53;5001640;28;20110;-76
2021/07/13 08:52:56;;;;;;;9.23;5.50;;;;;;;28.24;nan;99860.94;5016082;28;20033;-76
2021/07/13 08:55:22;;;;;;;8.43;5.97;;;;;;;28.32;nan;99863.84;5006463;28;20041;-76
2021/07/13 08:57:47;;;;;;;7.68;5.90;;;;;;;28.42;nan;99864.69;5000255;28;20121;-76
2021/07/13 09:00:16;;;;;;;7.85;6.28;;;;;;;28.55;nan;99852.75;5002655;28;20114;-76
2021/07/13 09:03:04;;;;;;;7.95;6.63;;;;;;;28.64;nan;99849.19;5001778;28;20031;-76
2021/07/13 09:05:38;;;;;;;8.30;5.80;;;;;;;28.76;nan;99848.03;5002332;28;20047;-76
2021/07/13 09:08:17;;;;;;;12.43;7.40;;;;;;;28.84;nan;99850.03;5000009;28;20093;-76
2021/07/13 09:10:59;;;;;;;8.40;6.07;;;;;;;28.97;nan;99841.59;5001431;28;20033;-76
2021/07/13 09:13:25;;;;;;;8.20;5.90;;;;;;;29.03;nan;99836.47;5001127;28;20373;-75
2021/07/13 09:16:01;;;;;;;9.05;5.55;;;;;;;29.25;nan;99848.88;5001651;28;20045;-75
2021/07/13 09:18:31;;;;;;;7.13;5.40;;;;;;;29.42;nan;99846.41;5015399;28;20072;-76
2021/07/13 09:21:10;;;;;;;7.53;5.28;;;;;;;29.59;nan;99842.06;5001551;28;20432;-76
2021/07/13 09:23:56;;;;;;;6.82;5.07;;;;;;;29.79;nan;99837.44;5002483;28;20167;-76
2021/07/13 09:26:54;;;;;;;6.65;4.80;;;;;;;29.94;nan;99841.38;5002473;28;20033;-75
2021/07/13 09:29:41;;;;;;;7.43;4.97;;;;;;;29.99;nan;99844.50;5000746;28;20046;-76
2021/07/13 09:32:21;;;;;;;6.22;4.60;;;;;;;30.10;nan;99835.25;5015698;28;20441;-76
2021/07/13 09:34:48;;;;;;;6.53;5.27;;;;;;;30.14;nan;99834.81;4999574;28;20126;-76
2021/07/13 09:37:47;;;;;;;20.10;8.45;;;;;;;30.15;nan;99836.53;5002444;28;20292;-75
2021/07/13 09:40:13;;;;;;;17.38;7.57;;;;;;;30.12;nan;99838.69;5001663;28;20038;-76
2021/07/13 09:42:49;;;;;;;17.52;9.55;;;;;;;30.03;nan;99840.47;5000433;28;20045;-76
2021/07/13 09:45:15;;;;;;;15.85;7.88;;;;;;;30.05;nan;99843.91;5000110;28;20038;-76
2021/07/13 09:47:41;;;;;;;12.55;7.25;;;;;;;30.09;nan;99845.31;5001430;28;20038;-76
2021/07/13 09:50:11;;;;;;;5.22;4.13;;;;;;;30.11;nan;99835.13;5001812;28;20041;-76
2021/07/13 09:52:37;;;;;;;6.55;5.07;;;;;;;30.37;nan;99845.31;4999981;28;20034;-76
2021/07/13 09:55:16;;;;;;;6.85;4.60;;;;;;;30.56;nan;99834.28;5002147;28;20083;-76
2021/07/13 09:57:42;;;;;;;9.05;5.90;;;;;;;30.80;nan;99839.09;5002518;28;20040;-76
2021/07/13 10:00:09;;;;;;;6.97;4.93;;;;;;;30.92;nan;99831.56;4996449;28;20031;-76
2021/07/13 10:02:35;;;;;;;7.68;5.93;;;;;;;31.11;nan;99830.53;5002181;28;20064;-75
2021/07/13 10:05:03;;;;;;;9.85;4.70;;;;;;;31.33;nan;99822.84;5005443;28;20160;-76
2021/07/13 10:07:30;;;;;;;7.75;5.47;;;;;;;31.46;nan;99822.44;5009883;28;20125;-76
2021/07/13 10:09:57;;;;;;;6.40;4.85;;;;;;;31.59;nan;99812.78;5003047;28;20042;-76
2021/07/13 10:12:26;;;;;;;5.28;4.00;;;;;;;31.73;nan;99824.97;5001056;28;20041;-76
2021/07/13 10:14:56;;;;;;;4.55;3.55;;;;;;;31.80;nan;99816.97;5004782;28;20512;-76
2021/07/13 10:17:27;;;;;;;3.47;2.22;;;;;;;31.67;nan;99820.16;5020651;28;20061;-76
2021/07/13 10:19:55;;;;;;;4.75;3.42;;;;;;;31.58;nan;99815.69;5007229;28;20109;-76
2021/07/13 10:22:23;;;;;;;6.90;5.38;;;;;;;31.54;nan;99826.06;4999285;28;20120;-76
2021/07/13 10:24:51;;;;;;;6.32;5.10;;;;;;;31.70;nan;99825.28;5004975;28;20104;-77
2021/07/13 10:27:35;;;;;;;9.20;7.53;;;;;;;31.96;nan;99819.81;5007510;28;20038;-76
2021/07/13 10:30:02;;;;;;;7.22;5.97;;;;;;;32.21;nan;99823.47;5005733;28;20416;-76
2021/07/13 10:32:28;;;;;;;6.10;4.18;;;;;;;32.41;nan;99817.72;5003216;28;20485;-76
2021/07/13 10:35:04;;;;;;;5.57;4.23;;;;;;;32.55;nan;99814.38;5021333;28;20076;-76
2021/07/13 10:37:36;;;;;;;7.78;5.50;;;;;;;32.70;nan;99809.94;5005244;28;20288;-76
2021/07/13 10:40:14;;;;;;;7.18;5.35;;;;;;;32.89;nan;99807.88;5009286;28;20473;-76
2021/07/13 10:42:40;;;;;;;7.00;5.07;;;;;;;33.08;nan;99815.75;5008890;28;20034;-76
2021/07/13 10:45:30;;;;;;;8.57;4.85;;;;;;;33.46;nan;99802.38;4999674;28;20041;-76
2021/07/13 10:48:21;;;;;;;5.45;3.10;;;;;;;33.44;nan;99803.56;5008457;28;20800;-76
2021/07/13 10:50:46;;;;;;;6.38;4.78;;;;;;;33.45;nan;99800.66;5000702;28;20046;-77
2021/07/13 10:53:22;;;;;;;5.82;3.85;;;;;;;33.44;nan;99788.00;5002136;28;20489;-76
2021/07/13 10:55:59;;;;;;;10.13;5.97;;;;;;;33.28;nan;99791.66;5002720;28;20089;-76
2021/07/13 10:58:25;;;;;;;7.05;4.88;;;;;;;33.46;nan;99796.91;5003135;28;20540;-76
2021/07/13 11:00:54;;;;;;;6.97;5.05;;;;;;;33.57;nan;99796.53;5004184;28;20037;-76
2021/07/13 11:03:37;;;;;;;6.00;4.90;;;;;;;33.66;nan;99797.38;5009650;28;20037;-76
2021/07/13 11:06:05;;;;;;;7.20;5.78;;;;;;;33.79;nan;99794.91;5010439;28;20405;-76
2021/07/13 11:08:40;;;;;;;7.50;5.05;;;;;;;33.99;nan;99792.59;5004551;28;20034;-76
2021/07/13 11:11:28;;;;;;;6.35;4.82;;;;;;;34.20;nan;99796.63;5003657;28;20034;-76
2021/07/13 11:13:56;;;;;;;6.15;4.38;;;;;;;34.33;nan;99793.31;5000145;28;20054;-76
2021/07/13 11:16:23;;;;;;;13.93;7.18;;;;;;;34.52;nan;99789.22;5003221;28;20052;-76
2021/07/13 11:18:49;;;;;;;4.85;3.10;;;;;;;34.65;nan;99789.50;5005244;28;20125;-76
2021/07/13 11:21:20;;;;;;;5.30;4.13;;;;;;;34.46;nan;99780.69;5006949;28;20037;-77
2021/07/13 11:23:46;;;;;;;;;;;;;;;34.29;nan;99787.31;5003795;28;20480;-76
2021/07/13 11:26:14;;;;;;;12.77;7.32;;;;;;;34.42;nan;99778.50;5003050;28;19917;-76
2021/07/13 11:28:51;;;;;;;6.43;5.55;;;;;;;34.31;nan;99779.78;5004794;28;20041;-76
2021/07/13 11:31:22;;;;;;;4.85;2.15;;;;;;;33.79;nan;99777.66;5018467;28;20072;-75
2021/07/13 11:33:56;;;;;;;7.72;5.95;;;;;;;33.49;nan;99780.13;5002839;28;20050;-76
2021/07/13 11:36:30;;;;;;;11.95;7.32;;;;;;;33.62;nan;99792.44;5000999;28;20065;-76
2021/07/13 11:38:57;;;;;;;8.88;6.75;;;;;;;33.54;nan;99785.13;5005580;28;20076;-76
2021/07/13 11:41:25;;;;;;;10.05;7.13;;;;;;;33.55;nan;99779.44;5000521;28;20112;-77
2021/07/13 11:43:52;;;;;;;8.45;7.07;;;;;;;33.58;nan;99781.81;5004662;28;20034;-76
2021/07/13 11:46:20;;;;;;;7.85;6.53;;;;;;;33.47;nan;99786.81;5004530;28;20049;-76
2021/07/13 11:49:06;;;;;;;8.68;6.45;;;;;;;33.39;nan;99776.75;5003943;28;20072;-76